sensor_id;sensor_type;location;lat;lon;timestamp;pressure;altitude;pressure_sealevel;temperature;humidity
77205;BME280;67992;46.618;18.850;2023-02-28T00:00:28;101353.22;;;16.52;29.16
77205;BME280;67992;46.618;18.850;2023-02-28T00:02:54;101344.41;;;16.41;29.87
77205;BME280;67992;46.618;18.850;2023-02-28T00:05:23;101347.59;;;16.45;29.68
77205;BME280;67992;46.618;18.850;2023-02-28T00:07:49;101355.84;;;16.43;29.34
77205;BME280;67992;46.618;18.850;2023-02-28T00:10:18;101357.28;;;16.38;29.67
77205;BME280;67992;46.618;18.850;2023-02-28T00:12:48;101360.25;;;16.35;29.83
77205;BME280;67992;46.618;18.850;2023-02-28T00:15:14;101366.34;;;16.37;29.62
77205;BME280;67992;46.618;18.850;2023-02-28T00:17:40;101364.94;;;16.33;29.53
77205;BME280;67992;46.618;18.850;2023-02-28T00:20:07;101371.34;;;16.32;29.79
77205;BME280;67992;46.618;18.850;2023-02-28T00:22:39;101372.63;;;16.28;29.80
77205;BME280;67992;46.618;18.850;2023-02-28T00:25:06;101373.47;;;16.28;29.55
77205;BME280;67992;46.618;18.850;2023-02-28T00:27:33;101380.16;;;16.24;29.62
77205;BME280;67992;46.618;18.850;2023-02-28T00:29:59;101374.06;;;16.22;29.87
77205;BME280;67992;46.618;18.850;2023-02-28T00:32:25;101383.44;;;16.18;29.81
77205;BME280;67992;46.618;18.850;2023-02-28T00:34:50;101391.50;;;16.18;30.14
77205;BME280;67992;46.618;18.850;2023-02-28T00:37:16;101385.56;;;16.15;30.07
77205;BME280;67992;46.618;18.850;2023-02-28T00:39:43;101379.50;;;16.13;30.09
77205;BME280;67992;46.618;18.850;2023-02-28T00:42:08;101379.66;;;16.11;30.26
77205;BME280;67992;46.618;18.850;2023-02-28T00:44:34;101371.50;;;16.03;30.39
77205;BME280;67992;46.618;18.850;2023-02-28T00:47:00;101381.66;;;16.09;30.04
77205;BME280;67992;46.618;18.850;2023-02-28T00:49:26;101382.47;;;16.10;29.77
77205;BME280;67992;46.618;18.850;2023-02-28T00:51:54;101372.06;;;16.07;29.92
77205;BME280;67992;46.618;18.850;2023-02-28T00:54:20;101379.25;;;16.06;29.84
77205;BME280;67992;46.618;18.850;2023-02-28T00:56:46;101376.72;;;16.05;29.94
77205;BME280;67992;46.618;18.850;2023-02-28T00:59:16;101365.13;;;16.04;30.32
77205;BME280;67992;46.618;18.850;2023-02-28T01:01:43;101367.13;;;16.02;30.40
77205;BME280;67992;46.618;18.850;2023-02-28T01:04:09;101372.09;;;15.97;30.09
77205;BME280;67992;46.618;18.850;2023-02-28T01:06:35;101373.09;;;15.96;30.01
77205;BME280;67992;46.618;18.850;2023-02-28T01:09:02;101367.00;;;15.94;30.30
77205;BME280;67992;46.618;18.850;2023-02-28T01:11:28;101367.31;;;15.91;30.75
77205;BME280;67992;46.618;18.850;2023-02-28T01:13:54;101367.31;;;15.91;30.23
77205;BME280;67992;46.618;18.850;2023-02-28T01:16:19;101359.28;;;15.91;30.32
77205;BME280;67992;46.618;18.850;2023-02-28T01:18:45;101343.50;;;15.78;30.69
77205;BME280;67992;46.618;18.850;2023-02-28T01:21:13;101366.06;;;15.86;30.34
77205;BME280;67992;46.618;18.850;2023-02-28T01:23:40;101368.06;;;15.84;30.57
77205;BME280;67992;46.618;18.850;2023-02-28T01:26:07;101361.84;;;15.83;30.67
77205;BME280;67992;46.618;18.850;2023-02-28T01:28:33;101363.69;;;15.82;30.38
77205;BME280;67992;46.618;18.850;2023-02-28T01:30:59;101366.53;;;15.81;30.36
77205;BME280;67992;46.618;18.850;2023-02-28T01:33:25;101367.81;;;15.77;30.56
77205;BME280;67992;46.618;18.850;2023-02-28T01:36:01;101369.63;;;15.76;30.58
77205;BME280;67992;46.618;18.850;2023-02-28T01:38:27;101376.00;;;15.75;30.70
77205;BME280;67992;46.618;18.850;2023-02-28T01:40:53;101378.81;;;15.74;30.74
77205;BME280;67992;46.618;18.850;2023-02-28T01:45:51;101357.28;;;15.66;30.78
77205;BME280;67992;46.618;18.850;2023-02-28T01:48:21;101363.03;;;15.71;31.29
77205;BME280;67992;46.618;18.850;2023-02-28T01:50:48;101346.66;;;15.64;31.15
77205;BME280;67992;46.618;18.850;2023-02-28T01:53:18;101356.13;;;15.68;30.64
77205;BME280;67992;46.618;18.850;2023-02-28T01:55:48;101350.03;;;15.66;30.94
77205;BME280;67992;46.618;18.850;2023-02-28T01:58:16;101352.19;;;15.63;31.02
77205;BME280;67992;46.618;18.850;2023-02-28T02:00:41;101349.63;;;15.61;30.62
77205;BME280;67992;46.618;18.850;2023-02-28T02:03:13;101347.97;;;15.60;31.20
77205;BME280;67992;46.618;18.850;2023-02-28T02:05:40;101347.13;;;15.60;31.33
77205;BME280;67992;46.618;18.850;2023-02-28T02:08:17;101350.78;;;15.59;30.79
77205;BME280;67992;46.618;18.850;2023-02-28T02:10:53;101348.09;;;15.59;31.21
77205;BME280;67992;46.618;18.850;2023-02-28T02:15:54;101343.47;;;15.51;31.33
77205;BME280;67992;46.618;18.850;2023-02-28T02:23:58;101349.00;;;15.50;31.68
77205;BME280;67992;46.618;18.850;2023-02-28T02:26:58;101353.50;;;15.49;31.58
77205;BME280;67992;46.618;18.850;2023-02-28T02:29:43;101356.34;;;15.48;31.25
77205;BME280;67992;46.618;18.850;2023-02-28T02:35:13;101345.88;;;15.45;31.22
77205;BME280;67992;46.618;18.850;2023-02-28T02:40:18;101351.69;;;15.40;31.62
77205;BME280;67992;46.618;18.850;2023-02-28T02:43:07;101339.53;;;15.36;31.71
77205;BME280;67992;46.618;18.850;2023-02-28T02:45:39;101351.69;;;15.40;31.13
77205;BME280;67992;46.618;18.850;2023-02-28T02:48:10;101357.88;;;15.41;31.32
77205;BME280;67992;46.618;18.850;2023-02-28T02:50:43;101362.41;;;15.40;31.12
77205;BME280;67992;46.618;18.850;2023-02-28T02:53:10;101355.34;;;15.39;31.44
77205;BME280;67992;46.618;18.850;2023-02-28T02:55:40;101351.81;;;15.39;31.33
77205;BME280;67992;46.618;18.850;2023-02-28T02:58:11;101348.72;;;15.34;31.19
77205;BME280;67992;46.618;18.850;2023-02-28T03:00:52;101351.28;;;15.35;31.22
77205;BME280;67992;46.618;18.850;2023-02-28T03:03:19;101327.72;;;15.19;31.35
77205;BME280;67992;46.618;18.850;2023-02-28T03:05:55;101353.22;;;15.33;32.02
77205;BME280;67992;46.618;18.850;2023-02-28T03:08:21;101342.66;;;15.32;31.81
77205;BME280;67992;46.618;18.850;2023-02-28T03:10:51;101340.13;;;15.30;31.54
77205;BME280;67992;46.618;18.850;2023-02-28T03:30:14;101342.69;;;15.22;31.09
77205;BME280;67992;46.618;18.850;2023-02-28T03:35:26;101344.81;;;15.18;31.27
77205;BME280;67992;46.618;18.850;2023-02-28T03:38:02;101347.47;;;15.18;31.81
77205;BME280;67992;46.618;18.850;2023-02-28T03:40:32;101338.75;;;15.16;31.87
77205;BME280;67992;46.618;18.850;2023-02-28T03:43:07;101341.44;;;15.16;31.16
77205;BME280;67992;46.618;18.850;2023-02-28T03:45:37;101338.19;;;15.13;31.79
77205;BME280;67992;46.618;18.850;2023-02-28T03:48:15;101335.50;;;15.13;31.29
77205;BME280;67992;46.618;18.850;2023-02-28T03:50:46;101341.88;;;15.12;31.75
77205;BME280;67992;46.618;18.850;2023-02-28T03:53:31;101344.53;;;15.12;31.71
77205;BME280;67992;46.618;18.850;2023-02-28T03:56:07;101345.53;;;15.11;31.53
77205;BME280;67992;46.618;18.850;2023-02-28T03:58:51;101350.03;;;15.10;31.66
77205;BME280;67992;46.618;18.850;2023-02-28T04:01:21;101335.81;;;15.10;31.45
77205;BME280;67992;46.618;18.850;2023-02-28T04:03:49;101334.97;;;15.09;31.76
77205;BME280;67992;46.618;18.850;2023-02-28T04:06:17;101319.03;;;14.98;31.54
77205;BME280;67992;46.618;18.850;2023-02-28T04:08:43;101343.13;;;15.08;32.10
77205;BME280;67992;46.618;18.850;2023-02-28T04:13:49;101332.16;;;15.01;31.79
77205;BME280;67992;46.618;18.850;2023-02-28T04:16:15;101338.34;;;15.02;31.50
77205;BME280;67992;46.618;18.850;2023-02-28T04:18:42;101331.28;;;15.01;31.84
77205;BME280;67992;46.618;18.850;2023-02-28T04:21:08;101336.66;;;15.01;31.84
77205;BME280;67992;46.618;18.850;2023-02-28T04:23:35;101341.16;;;15.00;32.25
77205;BME280;67992;46.618;18.850;2023-02-28T04:26:00;101335.97;;;14.99;31.82
77205;BME280;67992;46.618;18.850;2023-02-28T04:28:26;101339.50;;;14.99;31.47
77205;BME280;67992;46.618;18.850;2023-02-28T04:31:02;101335.09;;;14.98;31.83
77205;BME280;67992;46.618;18.850;2023-02-28T04:33:29;101339.63;;;14.98;31.59
77205;BME280;67992;46.618;18.850;2023-02-28T04:36:03;101333.56;;;14.96;31.35
77205;BME280;67992;46.618;18.850;2023-02-28T04:38:33;101336.25;;;14.96;31.97
77205;BME280;67992;46.618;18.850;2023-02-28T04:41:00;101332.88;;;14.94;32.39
77205;BME280;67992;46.618;18.850;2023-02-28T04:43:30;101337.53;;;14.92;31.36
77205;BME280;67992;46.618;18.850;2023-02-28T04:45:56;101334.00;;;14.91;31.56
77205;BME280;67992;46.618;18.850;2023-02-28T04:48:27;101330.03;;;14.86;32.35
77205;BME280;67992;46.618;18.850;2023-02-28T04:50:53;101341.19;;;14.91;31.63
77205;BME280;67992;46.618;18.850;2023-02-28T04:53:19;101333.13;;;14.91;31.79
77205;BME280;67992;46.618;18.850;2023-02-28T04:55:44;101333.13;;;14.91;32.36
77205;BME280;67992;46.618;18.850;2023-02-28T04:58:11;101323.56;;;14.88;31.57
77205;BME280;67992;46.618;18.850;2023-02-28T05:00:40;101322.28;;;14.83;31.95
77205;BME280;67992;46.618;18.850;2023-02-28T05:03:05;101333.44;;;14.88;31.51
77205;BME280;67992;46.618;18.850;2023-02-28T05:05:32;101329.06;;;14.87;31.82
77205;BME280;67992;46.618;18.850;2023-02-28T05:07:58;101326.09;;;14.80;31.98
77205;BME280;67992;46.618;18.850;2023-02-28T05:10:24;101322.44;;;14.81;32.45
77205;BME280;67992;46.618;18.850;2023-02-28T05:12:50;101331.19;;;14.83;31.65
77205;BME280;67992;46.618;18.850;2023-02-28T05:15:16;101324.13;;;14.82;31.81
77205;BME280;67992;46.618;18.850;2023-02-28T05:17:42;101324.53;;;14.78;32.63
77205;BME280;67992;46.618;18.850;2023-02-28T05:20:09;101327.94;;;14.80;32.27
77205;BME280;67992;46.618;18.850;2023-02-28T05:22:39;101321.75;;;14.79;32.51
77205;BME280;67992;46.618;18.850;2023-02-28T05:25:06;101321.88;;;14.78;31.78
77205;BME280;67992;46.618;18.850;2023-02-28T05:27:32;101312.16;;;14.77;32.19
77205;BME280;67992;46.618;18.850;2023-02-28T05:29:57;101305.66;;;14.70;31.65
77205;BME280;67992;46.618;18.850;2023-02-28T05:32:24;101325.56;;;14.77;31.81
77205;BME280;67992;46.618;18.850;2023-02-28T05:34:49;101328.22;;;14.77;32.19
77205;BME280;67992;46.618;18.850;2023-02-28T05:37:15;101326.53;;;14.76;32.13
77205;BME280;67992;46.618;18.850;2023-02-28T05:39:41;101329.38;;;14.74;32.67
77205;BME280;67992;46.618;18.850;2023-02-28T05:42:07;101333.88;;;14.74;32.62
77205;BME280;67992;46.618;18.850;2023-02-28T05:44:34;101339.06;;;14.75;32.54
77205;BME280;67992;46.618;18.850;2023-02-28T05:47:00;101343.91;;;14.72;31.49
77205;BME280;67992;46.618;18.850;2023-02-28T05:49:25;101351.63;;;14.75;31.85
77205;BME280;67992;46.618;18.850;2023-02-28T05:51:51;101340.63;;;14.68;31.74
77205;BME280;67992;46.618;18.850;2023-02-28T05:54:17;101356.16;;;14.74;31.77
77205;BME280;67992;46.618;18.850;2023-02-28T05:56:42;101361.53;;;14.74;31.52
77205;BME280;67992;46.618;18.850;2023-02-28T05:59:11;101367.00;;;14.73;31.97
77205;BME280;67992;46.618;18.850;2023-02-28T06:01:42;101367.00;;;14.73;31.68
77205;BME280;67992;46.618;18.850;2023-02-28T06:04:14;101366.56;;;14.68;31.98
77205;BME280;67992;46.618;18.850;2023-02-28T06:06:48;101371.66;;;14.71;31.79
77205;BME280;67992;46.618;18.850;2023-02-28T06:09:13;101359.81;;;14.64;32.17
77205;BME280;67992;46.618;18.850;2023-02-28T06:11:39;101387.75;;;14.71;31.70
77205;BME280;67992;46.618;18.850;2023-02-28T06:14:05;101369.09;;;14.60;32.34
77205;BME280;67992;46.618;18.850;2023-02-28T06:16:32;101391.38;;;14.70;32.42
77205;BME280;67992;46.618;18.850;2023-02-28T06:19:03;101387.03;;;14.69;31.83
77205;BME280;67992;46.618;18.850;2023-02-28T06:21:31;101394.22;;;14.68;32.24
77205;BME280;67992;46.618;18.850;2023-02-28T06:23:57;101403.97;;;14.69;32.25
77205;BME280;67992;46.618;18.850;2023-02-28T06:26:23;101394.50;;;14.65;31.68
77205;BME280;67992;46.618;18.850;2023-02-28T06:28:52;101406.91;;;14.66;32.27
77205;BME280;67992;46.618;18.850;2023-02-28T06:31:21;101401.56;;;14.66;32.40
77205;BME280;67992;46.618;18.850;2023-02-28T06:33:47;101418.50;;;14.67;31.67
77205;BME280;67992;46.618;18.850;2023-02-28T06:36:14;101419.47;;;14.66;31.73
77205;BME280;67992;46.618;18.850;2023-02-28T06:38:41;101415.94;;;14.65;32.04
77205;BME280;67992;46.618;18.850;2023-02-28T06:41:07;101414.38;;;14.63;31.60
77205;BME280;67992;46.618;18.850;2023-02-28T06:43:37;101416.94;;;14.64;31.93
77205;BME280;67992;46.618;18.850;2023-02-28T06:46:04;101415.94;;;14.65;32.18
77205;BME280;67992;46.618;18.850;2023-02-28T06:48:29;101421.28;;;14.65;32.72
77205;BME280;67992;46.618;18.850;2023-02-28T06:51:10;101425.59;;;13.98;30.09
77205;BME280;67992;46.618;18.850;2023-02-28T06:53:36;101422.41;;;13.53;31.33
77205;BME280;67992;46.618;18.850;2023-02-28T06:56:09;101426.75;;;13.74;30.50
77205;BME280;67992;46.618;18.850;2023-02-28T06:58:35;101417.97;;;13.93;31.12
77205;BME280;67992;46.618;18.850;2023-02-28T07:01:02;101408.00;;;14.05;31.03
77205;BME280;67992;46.618;18.850;2023-02-28T07:03:27;101430.03;;;14.18;31.05
77205;BME280;67992;46.618;18.850;2023-02-28T07:05:53;101418.22;;;14.20;31.17
77205;BME280;67992;46.618;18.850;2023-02-28T07:08:22;101404.81;;;14.11;32.10
77205;BME280;67992;46.618;18.850;2023-02-28T07:10:51;101427.53;;;14.26;31.66
77205;BME280;67992;46.618;18.850;2023-02-28T07:13:17;101436.13;;;14.29;31.33
77205;BME280;67992;46.618;18.850;2023-02-28T07:15:42;101427.13;;;14.30;31.85
77205;BME280;67992;46.618;18.850;2023-02-28T07:18:08;101434.19;;;14.31;31.95
77205;BME280;67992;46.618;18.850;2023-02-28T07:20:33;101432.47;;;14.30;30.96
77205;BME280;67992;46.618;18.850;2023-02-28T07:22:59;101437.72;;;14.32;31.88
77205;BME280;67992;46.618;18.850;2023-02-28T07:25:26;101426.88;;;14.33;31.37
77205;BME280;67992;46.618;18.850;2023-02-28T07:27:54;101421.75;;;14.30;31.60
77205;BME280;67992;46.618;18.850;2023-02-28T07:30:19;101428.94;;;14.30;31.67
77205;BME280;67992;46.618;18.850;2023-02-28T07:32:45;101428.00;;;14.31;32.18
77205;BME280;67992;46.618;18.850;2023-02-28T07:35:11;101428.81;;;14.31;32.07
77205;BME280;67992;46.618;18.850;2023-02-28T07:37:36;101426.25;;;14.30;32.01
77205;BME280;67992;46.618;18.850;2023-02-28T07:40:06;101412.28;;;14.26;31.73
77205;BME280;67992;46.618;18.850;2023-02-28T07:42:34;101420.78;;;14.31;31.78
77205;BME280;67992;46.618;18.850;2023-02-28T07:45:00;101418.22;;;14.30;32.22
77205;BME280;67992;46.618;18.850;2023-02-28T07:47:26;101419.97;;;14.31;31.88
77205;BME280;67992;46.618;18.850;2023-02-28T07:49:51;101415.56;;;14.30;32.04
77205;BME280;67992;46.618;18.850;2023-02-28T07:52:17;101424.31;;;14.32;32.32
77205;BME280;67992;46.618;18.850;2023-02-28T07:54:43;101413.03;;;14.28;32.00
77205;BME280;67992;46.618;18.850;2023-02-28T07:57:08;101412.28;;;14.26;31.49
77205;BME280;67992;46.618;18.850;2023-02-28T07:59:34;101416.41;;;14.30;32.43
77205;BME280;67992;46.618;18.850;2023-02-28T08:01:59;101400.59;;;14.27;31.78
77205;BME280;67992;46.618;18.850;2023-02-28T08:04:26;101408.50;;;14.29;32.28
77205;BME280;67992;46.618;18.850;2023-02-28T08:06:51;101413.84;;;14.29;32.85
77205;BME280;67992;46.618;18.850;2023-02-28T08:09:18;101398.34;;;14.23;32.14
77205;BME280;67992;46.618;18.850;2023-02-28T08:11:44;101399.75;;;14.27;32.10
77205;BME280;67992;46.618;18.850;2023-02-28T08:14:09;101405.25;;;14.25;31.99
77205;BME280;67992;46.618;18.850;2023-02-28T08:16:35;101417.66;;;14.26;31.65
77205;BME280;67992;46.618;18.850;2023-02-28T08:19:00;101414.97;;;14.26;32.28
77205;BME280;67992;46.618;18.850;2023-02-28T08:21:29;101418.50;;;14.27;32.10
77205;BME280;67992;46.618;18.850;2023-02-28T08:23:54;101424.72;;;14.27;32.04
77205;BME280;67992;46.618;18.850;2023-02-28T08:26:22;101415.13;;;14.25;32.51
77205;BME280;67992;46.618;18.850;2023-02-28T08:28:48;101415.97;;;14.25;32.93
77205;BME280;67992;46.618;18.850;2023-02-28T08:31:15;101424.84;;;14.26;31.82
77205;BME280;67992;46.618;18.850;2023-02-28T08:33:41;101422.31;;;14.24;32.72
77205;BME280;67992;46.618;18.850;2023-02-28T08:36:08;101424.84;;;14.26;32.89
77205;BME280;67992;46.618;18.850;2023-02-28T08:38:35;101419.63;;;14.24;32.33
77205;BME280;67992;46.618;18.850;2023-02-28T08:41:04;101411.75;;;14.23;32.37
77205;BME280;67992;46.618;18.850;2023-02-28T08:43:35;101421.44;;;14.24;32.85
77205;BME280;67992;46.618;18.850;2023-02-28T08:46:01;101422.31;;;14.24;33.09
77205;BME280;67992;46.618;18.850;2023-02-28T08:48:29;101430.22;;;14.26;32.84
77205;BME280;67992;46.618;18.850;2023-02-28T08:51:02;101406.38;;;14.13;32.65
77205;BME280;67992;46.618;18.850;2023-02-28T08:53:29;101419.88;;;14.21;33.04
77205;BME280;67992;46.618;18.850;2023-02-28T08:56:09;101425.97;;;14.23;32.25
77205;BME280;67992;46.618;18.850;2023-02-28T08:58:36;101418.91;;;14.22;32.51
77205;BME280;67992;46.618;18.850;2023-02-28T09:01:09;101414.25;;;14.24;32.84
77205;BME280;67992;46.618;18.850;2023-02-28T09:03:35;101409.06;;;14.23;32.27
77205;BME280;67992;46.618;18.850;2023-02-28T09:06:00;101416.09;;;14.24;32.45
77205;BME280;67992;46.618;18.850;2023-02-28T09:08:28;101415.66;;;14.19;32.76
77205;BME280;67992;46.618;18.850;2023-02-28T09:10:54;101418.91;;;14.22;32.00
77205;BME280;67992;46.618;18.850;2023-02-28T09:13:22;101415.81;;;14.17;32.41
77205;BME280;67992;46.618;18.850;2023-02-28T09:15:47;101417.34;;;14.20;32.84
77205;BME280;67992;46.618;18.850;2023-02-28T09:18:13;101418.22;;;14.20;32.71
77205;BME280;67992;46.618;18.850;2023-02-28T09:20:40;101412.28;;;14.17;32.63
77205;BME280;67992;46.618;18.850;2023-02-28T09:23:12;101414.84;;;14.18;32.61
77205;BME280;67992;46.618;18.850;2023-02-28T09:25:48;101409.31;;;14.20;33.18
77205;BME280;67992;46.618;18.850;2023-02-28T09:28:15;101409.19;;;14.21;32.45
77205;BME280;67992;46.618;18.850;2023-02-28T09:30:44;101409.19;;;14.21;32.91
77205;BME280;67992;46.618;18.850;2023-02-28T09:33:10;101412.84;;;14.20;32.98
77205;BME280;67992;46.618;18.850;2023-02-28T09:35:35;101404.81;;;14.20;32.56
77205;BME280;67992;46.618;18.850;2023-02-28T09:38:03;101412.97;;;14.19;32.63
77205;BME280;67992;46.618;18.850;2023-02-28T09:40:29;101406.06;;;14.16;32.72
77205;BME280;67992;46.618;18.850;2023-02-28T09:42:57;101417.50;;;14.18;32.69
77205;BME280;67992;46.618;18.850;2023-02-28T09:45:59;101414.69;;;14.20;33.05
77205;BME280;67992;46.618;18.850;2023-02-28T09:48:20;101417.50;;;14.18;32.94
77205;BME280;67992;46.618;18.850;2023-02-28T09:50:52;101415.66;;;14.19;33.27
77205;BME280;67992;46.618;18.850;2023-02-28T09:53:34;101421.84;;;14.19;32.94
77205;BME280;67992;46.618;18.850;2023-02-28T09:56:25;101426.38;;;14.19;32.60
77205;BME280;67992;46.618;18.850;2023-02-28T09:59:17;101427.22;;;14.19;32.41
77205;BME280;67992;46.618;18.850;2023-02-28T10:10:04;101433.56;;;14.18;33.24
77205;BME280;67992;46.618;18.850;2023-02-28T10:12:31;101426.50;;;14.17;33.29
77205;BME280;67992;46.618;18.850;2023-02-28T10:14:59;101436.09;;;14.20;33.44
77205;BME280;67992;46.618;18.850;2023-02-28T10:17:37;101437.22;;;14.17;33.21
77205;BME280;67992;46.618;18.850;2023-02-28T10:20:12;101431.88;;;14.17;33.66
77205;BME280;67992;46.618;18.850;2023-02-28T10:25:27;101432.97;;;14.15;33.49
77205;BME280;67992;46.618;18.850;2023-02-28T10:28:04;101433.84;;;14.15;34.02
77205;BME280;67992;46.618;18.850;2023-02-28T10:30:33;101439.19;;;14.15;33.28
77205;BME280;67992;46.618;18.850;2023-02-28T10:33:00;101432.84;;;14.16;33.57
77205;BME280;67992;46.618;18.850;2023-02-28T10:35:26;101435.94;;;14.12;33.57
77205;BME280;67992;46.618;18.850;2023-02-28T10:37:57;101412.94;;;14.09;33.16
77205;BME280;67992;46.618;18.850;2023-02-28T10:45:37;101419.75;;;14.13;33.31
77205;BME280;67992;46.618;18.850;2023-02-28T10:55:42;101416.22;;;14.13;33.50
77205;BME280;67992;46.618;18.850;2023-02-28T11:03:42;101394.91;;;14.11;34.11
77205;BME280;67992;46.618;18.850;2023-02-28T11:06:13;101397.59;;;14.11;33.46
77205;BME280;67992;46.618;18.850;2023-02-28T11:08:51;101386.59;;;14.05;33.87
77205;BME280;67992;46.618;18.850;2023-02-28T11:11:18;101400.44;;;14.10;33.31
77205;BME280;67992;46.618;18.850;2023-02-28T11:13:46;101394.22;;;14.09;33.11
77205;BME280;67992;46.618;18.850;2023-02-28T11:16:14;101390.56;;;14.10;33.16
77205;BME280;67992;46.618;18.850;2023-02-28T11:18:49;101393.25;;;14.10;34.07
77205;BME280;67992;46.618;18.850;2023-02-28T11:21:22;101384.78;;;14.05;33.65
77205;BME280;67992;46.618;18.850;2023-02-28T11:23:51;101388.88;;;14.09;34.24
77205;BME280;67992;46.618;18.850;2023-02-28T11:26:42;101375.91;;;14.05;33.12
77205;BME280;67992;46.618;18.850;2023-02-28T11:29:18;101373.22;;;14.05;33.32
77205;BME280;67992;46.618;18.850;2023-02-28T11:31:57;101378.16;;;14.09;33.72
77205;BME280;67992;46.618;18.850;2023-02-28T11:34:27;101377.31;;;14.09;33.84
77205;BME280;67992;46.618;18.850;2023-02-28T11:36:54;101365.03;;;14.06;33.81
77205;BME280;67992;46.618;18.850;2023-02-28T11:39:21;101374.50;;;14.10;34.28
77205;BME280;67992;46.618;18.850;2023-02-28T11:48:26;101363.91;;;14.09;34.19
77205;BME280;67992;46.618;18.850;2023-02-28T11:51:12;101363.09;;;14.08;34.34
77205;BME280;67992;46.618;18.850;2023-02-28T11:56:35;101354.91;;;14.10;33.90
77205;BME280;67992;46.618;18.850;2023-02-28T12:02:24;101348.84;;;14.08;34.24
77205;BME280;67992;46.618;18.850;2023-02-28T12:10:28;101342.81;;;14.06;33.50
77205;BME280;67992;46.618;18.850;2023-02-28T12:21:38;101336.44;;;14.07;34.29
77205;BME280;67992;46.618;18.850;2023-02-28T12:28:59;101327.88;;;14.03;33.75
77205;BME280;67992;46.618;18.850;2023-02-28T12:31:30;101320.81;;;14.02;34.20
77205;BME280;67992;46.618;18.850;2023-02-28T12:33:59;101317.97;;;14.04;33.68
77205;BME280;67992;46.618;18.850;2023-02-28T12:36:26;101325.91;;;14.05;34.41
77205;BME280;67992;46.618;18.850;2023-02-28T12:38:59;101320.53;;;14.05;34.40
77205;BME280;67992;46.618;18.850;2023-02-28T12:44:04;101317.88;;;14.05;34.01
77205;BME280;67992;46.618;18.850;2023-02-28T12:46:41;101305.03;;;13.99;33.55
77205;BME280;67992;46.618;18.850;2023-02-28T12:49:19;101322.50;;;14.03;34.21
77205;BME280;67992;46.618;18.850;2023-02-28T12:51:47;101305.16;;;13.98;34.45
77205;BME280;67992;46.618;18.850;2023-02-28T12:55:02;101312.78;;;14.02;34.35
77205;BME280;67992;46.618;18.850;2023-02-28T12:57:40;101308.13;;;14.04;34.28
77205;BME280;67992;46.618;18.850;2023-02-28T13:00:14;101313.63;;;14.03;34.83
77205;BME280;67992;46.618;18.850;2023-02-28T13:09:11;101313.63;;;14.03;33.87
77205;BME280;67992;46.618;18.850;2023-02-28T13:11:43;101306.56;;;14.02;34.27
77205;BME280;67992;46.618;18.850;2023-02-28T13:17:23;101308.41;;;14.01;34.20
77205;BME280;67992;46.618;18.850;2023-02-28T13:22:42;101298.81;;;13.99;34.42
77205;BME280;67992;46.618;18.850;2023-02-28T13:27:48;101298.97;;;13.97;34.93
77205;BME280;67992;46.618;18.850;2023-02-28T13:33:34;101302.50;;;13.98;34.42
77205;BME280;67992;46.618;18.850;2023-02-28T13:38:44;101301.66;;;13.97;34.99
77205;BME280;67992;46.618;18.850;2023-02-28T13:51:52;101315.03;;;13.97;35.03
77205;BME280;67992;46.618;18.850;2023-02-28T13:54:35;101307.25;;;13.94;34.40
77205;BME280;67992;46.618;18.850;2023-02-28T14:05:20;101310.09;;;13.92;34.66
77205;BME280;67992;46.618;18.850;2023-02-28T14:07:59;101308.28;;;13.93;35.39
77205;BME280;67992;46.618;18.850;2023-02-28T14:10:36;101305.59;;;13.93;34.51
77205;BME280;67992;46.618;18.850;2023-02-28T14:18:32;101297.56;;;13.93;35.00
77205;BME280;67992;46.618;18.850;2023-02-28T14:35:00;101284.44;;;13.90;34.47
77205;BME280;67992;46.618;18.850;2023-02-28T14:37:30;101282.63;;;13.90;35.23
77205;BME280;67992;46.618;18.850;2023-02-28T14:40:01;101287.41;;;13.87;34.56
77205;BME280;67992;46.618;18.850;2023-02-28T14:42:30;101279.22;;;13.88;35.28
77205;BME280;67992;46.618;18.850;2023-02-28T14:44:56;101287.25;;;13.88;35.37
77205;BME280;67992;46.618;18.850;2023-02-28T14:47:23;101271.75;;;13.82;34.55
77205;BME280;67992;46.618;18.850;2023-02-28T14:49:50;101270.63;;;13.85;35.21
77205;BME280;67992;46.618;18.850;2023-02-28T14:52:28;101281.06;;;13.88;34.74
77205;BME280;67992;46.618;18.850;2023-02-28T14:55:06;101277.66;;;13.86;35.25
77205;BME280;67992;46.618;18.850;2023-02-28T14:57:42;101277.53;;;13.87;35.59
77205;BME280;67992;46.618;18.850;2023-02-28T15:00:25;101274.88;;;13.87;34.35
77205;BME280;67992;46.618;18.850;2023-02-28T15:02:52;101273.03;;;13.88;35.15
77205;BME280;67992;46.618;18.850;2023-02-28T15:05:23;101271.19;;;13.88;35.06
77205;BME280;67992;46.618;18.850;2023-02-28T15:08:01;101286.53;;;13.86;34.32
77205;BME280;67992;46.618;18.850;2023-02-28T15:10:28;101277.66;;;13.86;35.12
77205;BME280;67992;46.618;18.850;2023-02-28T15:13:20;101270.63;;;13.85;34.85
77205;BME280;67992;46.618;18.850;2023-02-28T15:15:58;101275.28;;;13.83;35.20
77205;BME280;67992;46.618;18.850;2023-02-28T15:18:46;101279.63;;;13.84;34.87
77205;BME280;67992;46.618;18.850;2023-02-28T15:21:16;101274.56;;;13.81;35.00
77205;BME280;67992;46.618;18.850;2023-02-28T15:23:45;101272.72;;;13.81;34.78
77205;BME280;67992;46.618;18.850;2023-02-28T15:26:21;101274.44;;;13.82;34.76
77205;BME280;67992;46.618;18.850;2023-02-28T15:29:04;101279.78;;;13.82;34.68
77205;BME280;67992;46.618;18.850;2023-02-28T15:31:39;101272.19;;;13.78;35.04
77205;BME280;67992;46.618;18.850;2023-02-28T15:34:12;101274.56;;;13.81;35.50